Time;durP1;ratioP1;P1;durP2;ratioP2;P2;SDS_P1;SDS_P2;PMS_P1;PMS_P2;Temp;Humidity;BMP_temperature;BMP_pressure;BME280_temperature;BME280_humidity;BME280_pressure;Samples;Min_cycle;Max_cycle;Signal;HPM_P1;HPM_P2
2022/04/01 00:01:33;;;;;;;4.53;4.12;;;;;;;16.94;47.79;98140.05;1764798;81;21799;-59
2022/04/01 00:04:00;;;;;;;4.47;3.80;;;;;;;16.92;47.79;98155.08;1777406;80;20997;-60
2022/04/01 00:06:28;;;;;;;4.12;3.77;;;;;;;16.93;47.83;98159.37;1775141;80;21024;-60
2022/04/01 00:08:56;;;;;;;4.42;4.03;;;;;;;16.90;47.83;98152.64;1767193;80;20997;-61
2022/04/01 00:11:23;;;;;;;4.10;3.70;;;;;;;16.90;47.84;98154.48;1766028;80;21470;-60
2022/04/01 00:13:50;;;;;;;4.72;4.33;;;;;;;16.89;47.83;98159.59;1765911;79;21091;-60
2022/04/01 00:16:16;;;;;;;4.58;4.17;;;;;;;16.89;47.84;98156.36;1768118;80;21093;-60
2022/04/01 00:18:43;;;;;;;3.83;3.52;;;;;;;16.88;47.83;98147.22;1766700;80;21013;-60
2022/04/01 00:21:10;;;;;;;4.47;4.08;;;;;;;16.86;47.88;98135.93;1765947;80;21053;-59
2022/04/01 00:23:36;;;;;;;4.40;4.00;;;;;;;16.86;47.87;98126.55;1770700;80;21344;-60
2022/04/01 00:26:03;;;;;;;4.20;3.80;;;;;;;16.85;47.89;98122.25;1765876;80;21209;-59
2022/04/01 00:28:29;;;;;;;3.75;3.45;;;;;;;16.84;47.89;98113.41;1764747;80;20994;-60
2022/04/01 00:30:58;;;;;;;4.05;3.75;;;;;;;16.83;47.90;98097.02;1769433;79;21508;-59
2022/04/01 00:33:25;;;;;;;4.45;4.05;;;;;;;16.83;47.92;98092.20;1765491;80;21069;-59
2022/04/01 00:35:53;;;;;;;4.15;3.80;;;;;;;16.82;47.92;98094.58;1761210;81;21096;-60
2022/04/01 00:38:19;;;;;;;3.83;3.52;;;;;;;16.80;47.92;98091.30;1753885;81;22165;-60
2022/04/01 00:40:46;;;;;;;3.90;3.52;;;;;;;16.79;47.94;98087.02;1757858;81;21065;-60
2022/04/01 00:43:13;;;;;;;4.08;3.77;;;;;;;16.78;47.95;98087.53;1751120;81;21067;-59
2022/04/01 00:45:40;;;;;;;3.58;3.27;;;;;;;16.78;47.96;98094.77;1767004;81;21548;-61
2022/04/01 00:48:07;;;;;;;3.95;3.55;;;;;;;16.77;47.95;98087.80;1771624;79;21021;-60
2022/04/01 00:50:35;;;;;;;4.12;3.75;;;;;;;16.76;47.95;98093.67;1796581;79;21241;-60
2022/04/01 00:53:02;;;;;;;4.20;3.80;;;;;;;16.76;48.00;98095.55;1787264;79;22050;-60
2022/04/01 00:55:30;;;;;;;3.65;3.35;;;;;;;16.75;47.98;98088.58;1796276;79;21033;-59
2022/04/01 00:57:56;;;;;;;4.20;3.80;;;;;;;16.74;47.98;98090.97;1789450;79;21036;-60
2022/04/01 01:00:25;;;;;;;4.15;3.75;;;;;;;16.73;48.01;98087.48;1796532;79;21500;-59
2022/04/01 01:02:51;;;;;;;3.92;3.62;;;;;;;16.72;48.03;98083.16;1796259;79;21147;-60
2022/04/01 01:05:19;;;;;;;3.75;3.37;;;;;;;16.71;48.03;98085.58;1794973;79;21033;-59
2022/04/01 01:07:48;;;;;;;4.05;3.75;;;;;;;16.70;48.04;98080.72;1796506;79;21073;-60
2022/04/01 01:10:18;;;;;;;3.83;3.52;;;;;;;16.69;48.06;98077.78;1787219;79;21033;-60
2022/04/01 01:12:45;;;;;;;3.72;3.42;;;;;;;16.69;48.05;98074.30;1784593;79;21029;-60
2022/04/01 01:15:16;;;;;;;3.83;3.52;;;;;;;16.69;48.07;98085.83;1795986;79;21493;-60
2022/04/01 01:17:42;;;;;;;4.75;4.30;;;;;;;16.68;48.08;98088.75;1787341;79;21059;-60
2022/04/01 01:20:16;;;;;;;3.77;3.45;;;;;;;16.66;48.08;98083.62;1792726;79;21074;-59
2022/04/01 01:22:43;;;;;;;3.60;3.30;;;;;;;16.66;48.09;98082.28;1774560;79;21023;-58
2022/04/01 01:25:12;;;;;;;3.50;3.20;;;;;;;16.65;48.12;98075.31;1768686;80;21548;-60
2022/04/01 01:27:40;;;;;;;4.00;3.60;;;;;;;16.65;48.12;98074.48;1764996;81;21177;-61
2022/04/01 01:30:09;;;;;;;3.98;3.58;;;;;;;16.64;48.13;98071.00;1769275;80;21214;-59
2022/04/01 01:32:35;;;;;;;3.50;3.20;;;;;;;16.64;48.13;98079.58;1770120;80;21084;-60
2022/04/01 01:35:05;;;;;;;3.77;3.47;;;;;;;16.63;48.16;98064.03;1770789;80;22557;-59
2022/04/01 01:37:32;;;;;;;3.75;3.12;;;;;;;16.63;48.16;98055.16;1777263;79;21044;-60
2022/04/01 01:40:03;;;;;;;4.03;3.72;;;;;;;16.62;48.16;98047.66;1756890;79;21845;-59
2022/04/01 01:42:30;;;;;;;3.90;3.47;;;;;;;16.62;48.17;98047.66;1756737;81;21145;-59
2022/04/01 01:44:58;;;;;;;3.17;2.87;;;;;;;16.61;48.17;98038.00;1752519;81;21587;-60
2022/04/01 01:47:25;;;;;;;3.60;3.30;;;;;;;16.61;48.17;98039.34;1744731;81;21065;-60
2022/04/01 01:55:22;;;;;;;4.25;3.70;;;;;;;16.59;48.21;98019.19;1768450;79;21462;-59
2022/04/01 01:57:49;;;;;;;3.67;3.37;;;;;;;16.58;48.21;98015.70;1781053;79;21029;-60
2022/04/01 02:00:20;;;;;;;3.83;3.52;;;;;;;16.57;48.25;98011.39;1779223;80;21107;-59
2022/04/01 02:02:45;;;;;;;3.70;3.20;;;;;;;16.56;48.25;98007.10;1753352;80;21034;-59
2022/04/01 02:05:11;;;;;;;3.77;3.47;;;;;;;16.56;48.25;98003.08;1762191;80;22002;-60
2022/04/01 02:07:40;;;;;;;4.08;3.67;;;;;;;16.56;48.26;97992.36;1779233;79;21003;-59
2022/04/01 02:10:07;;;;;;;3.80;3.50;;;;;;;16.56;48.27;97995.58;1784839;79;21577;-60
2022/04/01 02:12:35;;;;;;;3.83;3.52;;;;;;;16.56;48.28;97983.52;1765850;79;21109;-60
2022/04/01 02:15:05;;;;;;;3.27;2.90;;;;;;;16.56;48.28;97974.13;1812363;78;21029;-60
2022/04/01 02:17:32;;;;;;;3.70;3.40;;;;;;;16.55;48.28;97961.23;1824890;78;21214;-60
2022/04/01 02:20:00;;;;;;;3.60;3.30;;;;;;;16.54;48.29;97946.23;1784867;80;20990;-60
2022/04/01 02:22:27;;;;;;;3.77;3.47;;;;;;;16.55;48.30;97928.27;1785914;80;21545;-60
2022/04/01 02:24:53;;;;;;;3.83;3.52;;;;;;;16.54;48.31;97934.17;1815683;78;21556;-60
2022/04/01 02:27:21;;;;;;;3.70;3.40;;;;;;;16.53;48.34;97948.62;1821389;78;21073;-58
2022/04/01 02:29:48;;;;;;;3.85;3.45;;;;;;;16.53;48.33;97945.94;1805572;78;21253;-60
2022/04/01 02:32:26;;;;;;;3.90;3.60;;;;;;;16.53;48.34;97947.28;1766688;80;21269;-59
2022/04/01 02:35:11;;;;;;;4.10;3.70;;;;;;;16.52;48.36;97952.38;1781114;80;21055;-59
2022/04/01 02:37:39;;;;;;;4.35;3.60;;;;;;;16.51;48.38;97954.25;1811439;78;21577;-60
2022/04/01 02:40:08;;;;;;;4.45;3.60;;;;;;;16.50;48.38;97955.84;1789396;79;21114;-60
2022/04/01 02:42:35;;;;;;;3.25;2.95;;;;;;;16.49;48.39;97955.00;1752346;80;21819;-60
2022/04/01 02:45:02;;;;;;;3.55;3.25;;;;;;;16.49;48.40;97946.96;1748243;81;21002;-60
2022/04/01 02:47:29;;;;;;;3.85;3.55;;;;;;;16.49;48.40;97934.10;1779935;79;21033;-59
2022/04/01 02:49:57;;;;;;;3.35;3.05;;;;;;;16.48;48.41;97919.09;1787537;79;21083;-60
2022/04/01 02:52:23;;;;;;;3.62;3.33;;;;;;;16.49;48.44;97926.06;1771827;79;21520;-60
2022/04/01 02:54:52;;;;;;;3.80;3.50;;;;;;;16.49;48.41;97927.41;1801998;79;21139;-60
2022/04/01 02:57:20;;;;;;;3.80;3.40;;;;;;;16.48;48.45;97920.44;1801867;79;21009;-60
2022/04/01 02:59:48;;;;;;;3.65;3.35;;;;;;;16.47;48.45;97918.80;1791136;79;21087;-60
2022/04/01 03:02:15;;;;;;;3.67;3.37;;;;;;;16.47;48.44;97925.50;1791927;79;21573;-60
2022/04/01 03:04:43;;;;;;;3.40;3.10;;;;;;;16.46;48.46;97937.30;1767453;79;21029;-60
2022/04/01 03:07:09;;;;;;;3.40;3.10;;;;;;;16.46;48.47;97927.92;1751738;81;21271;-60
2022/04/01 03:09:37;;;;;;;3.50;3.20;;;;;;;16.46;48.49;97921.22;1744543;81;21131;-60
2022/04/01 03:12:07;;;;;;;3.47;3.17;;;;;;;16.45;48.49;97926.28;1758188;81;21022;-59
2022/04/01 03:14:51;;;;;;;3.50;3.20;;;;;;;16.45;48.50;97928.42;1756646;81;21005;-62
2022/04/01 03:17:31;;;;;;;3.50;3.20;;;;;;;16.45;48.50;97911.55;1766768;81;21044;-60
2022/04/01 03:20:02;;;;;;;3.65;3.35;;;;;;;16.43;48.50;97915.81;1749356;80;21261;-60
2022/04/01 03:22:29;;;;;;;3.72;3.42;;;;;;;16.43;48.51;97909.64;1789701;79;21036;-60
2022/04/01 03:24:56;;;;;;;3.50;3.20;;;;;;;16.43;48.53;97911.79;1789799;79;21009;-61
2022/04/01 03:27:23;;;;;;;3.40;3.10;;;;;;;16.43;48.54;97910.45;1799664;79;21071;-60
2022/04/01 03:29:50;;;;;;;3.90;3.50;;;;;;;16.43;48.55;97912.33;1799179;79;21595;-61
2022/04/01 03:32:17;;;;;;;3.70;3.40;;;;;;;16.42;48.57;97913.41;1787126;79;21293;-60
2022/04/01 03:34:44;;;;;;;3.58;3.27;;;;;;;16.42;48.56;97915.55;1790709;79;21367;-59
2022/04/01 03:37:10;;;;;;;3.17;2.98;;;;;;;16.42;48.57;97912.87;1802565;79;21024;-59
2022/04/01 03:39:38;;;;;;;3.47;3.17;;;;;;;16.43;48.58;97912.33;1763380;81;21060;-60
2022/04/01 03:42:06;;;;;;;3.30;3.00;;;;;;;16.42;48.59;97911.52;1750959;81;21041;-59
2022/04/01 03:44:37;;;;;;;3.22;2.95;;;;;;;16.42;48.58;97913.41;1768844;81;21275;-60
2022/04/01 03:47:23;;;;;;;3.60;3.30;;;;;;;16.41;48.62;97918.47;1711889;80;21025;-59
2022/04/01 03:49:51;;;;;;;3.27;2.98;;;;;;;16.41;48.60;97917.12;1774623;80;21037;-58
2022/04/01 03:52:19;;;;;;;3.60;3.30;;;;;;;16.39;48.63;97920.05;1795765;79;21009;-59
2022/04/01 03:54:46;;;;;;;3.62;3.33;;;;;;;16.40;48.64;97920.86;1796685;79;20998;-61
2022/04/01 03:57:15;;;;;;;3.47;3.17;;;;;;;16.39;48.65;97926.75;1732808;79;21151;-61
2022/04/01 03:59:42;;;;;;;3.50;3.20;;;;;;;16.39;48.67;97931.31;1794076;79;21037;-59
2022/04/01 04:02:22;;;;;;;3.35;3.05;;;;;;;16.39;48.66;97932.65;1750836;79;21683;-60
2022/04/01 04:04:50;;;;;;;2.95;2.75;;;;;;;16.38;48.67;97935.87;1797249;79;21096;-59
2022/04/01 04:07:17;;;;;;;3.33;3.02;;;;;;;16.38;48.70;97929.67;1764067;80;21600;-60
2022/04/01 04:09:47;;;;;;;3.58;3.27;;;;;;;16.38;48.70;97929.17;1800938;79;21552;-59
2022/04/01 04:12:14;;;;;;;3.77;3.47;;;;;;;16.38;48.70;97922.98;1796711;79;21095;-59
2022/04/01 04:14:44;;;;;;;3.40;3.10;;;;;;;16.37;48.70;97920.83;1794205;79;21047;-59
2022/04/01 04:17:18;;;;;;;3.00;2.80;;;;;;;16.38;48.71;97910.92;1794116;79;21522;-59
2022/04/01 04:20:18;;;;;;;3.40;3.00;;;;;;;16.37;48.72;97902.08;1805877;79;21002;-59
2022/04/01 04:23:17;;;;;;;3.37;3.08;;;;;;;16.37;48.72;97903.95;1786206;79;21153;-60
2022/04/01 04:25:59;;;;;;;3.22;3.02;;;;;;;16.36;48.73;97899.64;1788313;79;21029;-59
2022/04/01 04:28:27;;;;;;;2.98;2.77;;;;;;;16.35;48.74;97896.70;1798119;79;21028;-59
2022/04/01 04:31:01;;;;;;;3.20;3.00;;;;;;;16.33;48.77;97898.82;1796508;79;21017;-60
2022/04/01 04:33:31;;;;;;;3.25;2.95;;;;;;;16.33;48.81;97894.27;1755269;79;21049;-59
2022/04/01 04:36:04;;;;;;;3.10;2.85;;;;;;;16.33;48.82;97888.10;1791631;79;21297;-60
2022/04/01 04:38:38;;;;;;;2.87;2.67;;;;;;;16.32;48.83;97887.27;1764851;81;21092;-61
2022/04/01 04:41:08;;;;;;;3.12;2.85;;;;;;;16.33;48.83;97884.08;1785861;79;21061;-62
2022/04/01 04:43:44;;;;;;;2.98;2.77;;;;;;;16.31;48.84;97880.31;1750063;80;21072;-60
2022/04/01 04:46:12;;;;;;;3.15;2.95;;;;;;;16.31;48.84;97875.75;1765803;79;21484;-60
2022/04/01 04:48:42;;;;;;;3.25;2.95;;;;;;;16.33;48.84;97880.06;1748884;81;21135;-60
2022/04/01 04:51:09;;;;;;;3.00;2.75;;;;;;;16.31;48.84;97871.73;1757302;81;21080;-59
2022/04/01 04:53:39;;;;;;;3.22;2.92;;;;;;;16.32;48.84;97869.86;1770565;80;21028;-60
2022/04/01 04:56:09;;;;;;;2.72;2.52;;;;;;;16.31;48.85;97865.03;1763322;80;21542;-59
2022/04/01 05:01:41;;;;;;;3.08;2.80;;;;;;;16.36;48.86;97859.45;1870370;76;28109;-60
2022/04/01 05:04:46;;;;;;;3.27;3.00;;;;;;;16.33;48.89;97860.77;1804693;77;21534;-60
2022/04/01 05:07:35;;;;;;;3.33;3.02;;;;;;;16.32;48.87;97855.12;1793913;79;21138;-60
2022/04/01 05:10:27;;;;;;;3.10;2.80;;;;;;;16.33;48.88;97855.95;1793990;79;20989;-60
2022/04/01 05:13:25;;;;;;;3.22;3.02;;;;;;;16.29;48.90;97852.42;1794012;79;20977;-61
2022/04/01 05:16:06;;;;;;;3.17;2.90;;;;;;;16.29;48.92;97848.41;1793481;79;20993;-61
2022/04/01 05:18:46;;;;;;;2.75;2.55;;;;;;;16.28;48.94;97860.20;1774467;80;21004;-59
2022/04/01 05:21:23;;;;;;;3.25;2.95;;;;;;;16.28;48.94;97858.86;1794435;78;21328;-60
2022/04/01 05:24:01;;;;;;;3.40;3.10;;;;;;;16.28;48.95;97858.02;1774258;80;21056;-60
2022/04/01 05:26:40;;;;;;;2.90;2.70;;;;;;;16.29;48.97;97854.30;1794009;79;20882;-60
2022/04/01 05:29:25;;;;;;;3.33;3.00;;;;;;;16.29;48.96;97850.28;1793185;80;20994;-60
2022/04/01 05:32:01;;;;;;;3.10;2.90;;;;;;;16.28;48.97;97855.34;1794119;79;21033;-59
2022/04/01 05:34:46;;;;;;;3.37;3.08;;;;;;;16.29;48.98;97848.94;1794374;79;21750;-59
2022/04/01 05:37:15;;;;;;;3.00;2.80;;;;;;;16.29;48.98;97855.64;1798085;78;21025;-60
2022/04/01 05:39:46;;;;;;;3.37;3.10;;;;;;;16.28;48.99;97858.02;1826781;78;21069;-61
2022/04/01 05:42:12;;;;;;;2.92;2.72;;;;;;;16.28;48.98;97854.00;1826375;78;21006;-60
2022/04/01 05:44:42;;;;;;;3.12;2.83;;;;;;;16.28;48.98;97852.16;1826053;78;21013;-59
2022/04/01 05:47:10;;;;;;;3.20;2.92;;;;;;;16.28;49.00;97846.80;1826425;78;21230;-60
2022/04/01 05:49:42;;;;;;;3.65;3.35;;;;;;;16.28;48.98;97846.80;1826473;78;21544;-59
2022/04/01 05:52:10;;;;;;;3.22;3.02;;;;;;;16.29;49.00;97845.72;1826462;78;21111;-59
2022/04/01 05:54:39;;;;;;;3.30;3.00;;;;;;;16.30;48.98;97833.95;1825370;78;21052;-59
2022/04/01 05:57:08;;;;;;;3.22;2.95;;;;;;;16.30;48.98;97837.98;1826606;78;21023;-59
2022/04/01 05:59:37;;;;;;;3.15;2.85;;;;;;;16.30;48.97;97831.28;1820501;78;21226;-59
2022/04/01 06:02:49;;;;;;;3.20;2.92;;;;;;;16.31;48.99;97832.88;1812749;79;20986;-60
2022/04/01 06:05:45;;;;;;;3.20;2.90;;;;;;;16.33;48.97;97825.14;1815227;79;21482;-59
2022/04/01 06:08:48;;;;;;;3.10;2.80;;;;;;;16.33;48.98;97827.81;1815140;79;21037;-58
2022/04/01 06:11:42;;;;;;;2.85;2.65;;;;;;;16.31;48.99;97826.72;1790220;79;20991;-60
2022/04/01 06:14:37;;;;;;;3.77;2.87;;;;;;;16.31;49.00;97832.08;1780783;80;21146;-61
2022/04/01 06:17:49;;;;;;;2.83;2.62;;;;;;;16.29;49.04;97816.25;1782547;80;21517;-60
2022/04/01 06:20:17;;;;;;;3.08;2.77;;;;;;;16.29;49.05;97810.09;1782445;80;21025;-60
2022/04/01 06:22:50;;;;;;;3.37;3.08;;;;;;;16.28;49.10;97815.98;1782573;80;21041;-60
2022/04/01 06:25:20;;;;;;;3.62;3.33;;;;;;;16.29;49.10;97812.77;1782502;79;21077;-60
2022/04/01 06:27:50;;;;;;;3.25;2.95;;;;;;;16.29;49.10;97808.75;1783670;79;21605;-60
2022/04/01 06:30:21;;;;;;;3.98;3.40;;;;;;;16.28;49.11;97805.27;1782417;80;21033;-60
2022/04/01 06:33:13;;;;;;;3.05;2.77;;;;;;;16.29;49.12;97809.55;1782098;79;21014;-60
2022/04/01 06:35:59;;;;;;;3.00;2.80;;;;;;;16.30;49.10;97815.71;1752414;79;21069;-60
2022/04/01 06:38:41;;;;;;;3.12;2.90;;;;;;;16.30;49.10;97811.69;1782187;79;21045;-60
2022/04/01 06:41:19;;;;;;;3.50;3.20;;;;;;;16.30;49.11;97815.20;1782728;79;21140;-59
2022/04/01 06:43:48;;;;;;;3.20;2.90;;;;;;;16.30;49.10;97811.18;1770394;80;21053;-60
2022/04/01 06:46:33;;;;;;;3.00;2.80;;;;;;;16.30;49.10;97804.48;1782637;80;21563;-60
2022/04/01 06:49:01;;;;;;;2.80;2.60;;;;;;;16.31;49.11;97800.73;1781792;79;21065;-60
2022/04/01 06:51:48;;;;;;;3.20;2.98;;;;;;;16.31;49.12;97799.39;1782618;80;21014;-59
2022/04/01 06:54:26;;;;;;;3.30;3.00;;;;;;;16.31;49.15;97805.28;1782395;80;21116;-59
2022/04/01 06:57:11;;;;;;;3.10;2.80;;;;;;;16.31;49.15;97802.06;1782466;80;21049;-60
2022/04/01 06:59:40;;;;;;;3.50;3.20;;;;;;;16.33;49.15;97799.68;1780866;79;21062;-59
2022/04/01 07:02:07;;;;;;;3.30;3.00;;;;;;;16.33;49.16;97798.34;1796865;79;21099;-60
2022/04/01 07:04:34;;;;;;;3.22;2.92;;;;;;;16.33;49.18;97799.14;1812206;79;21451;-59
2022/04/01 07:07:04;;;;;;;3.12;2.92;;;;;;;16.34;49.16;97802.11;1809742;79;21030;-60
2022/04/01 07:09:30;;;;;;;3.05;2.85;;;;;;;16.35;49.15;97809.08;1814496;79;21326;-60
2022/04/01 07:11:59;;;;;;;3.65;3.35;;;;;;;16.36;49.16;97801.33;1814604;79;21073;-59
2022/04/01 07:14:28;;;;;;;3.12;2.90;;;;;;;16.36;49.15;97805.86;1814630;78;20963;-59
2022/04/01 07:16:55;;;;;;;3.37;3.08;;;;;;;16.38;49.15;97805.07;1814630;79;21045;-59
2022/04/01 07:19:22;;;;;;;3.25;3.05;;;;;;;16.38;49.15;97798.37;1796390;79;21179;-58
2022/04/01 07:21:51;;;;;;;3.20;2.90;;;;;;;16.38;49.14;97801.05;1782646;79;21034;-60
2022/04/01 07:24:17;;;;;;;3.42;3.12;;;;;;;16.39;49.14;97809.38;1782420;80;21014;-59
2022/04/01 07:26:44;;;;;;;3.08;2.87;;;;;;;16.39;49.17;97806.16;1782567;80;20979;-59
2022/04/01 07:29:13;;;;;;;3.15;2.90;;;;;;;16.39;49.15;97798.13;1738573;82;21077;-60
2022/04/01 07:34:39;;;;;;;3.08;2.80;;;;;;;16.41;49.14;97787.16;1705254;83;21083;-59
2022/04/01 07:37:25;;;;;;;3.30;3.00;;;;;;;16.40;49.16;97790.89;1722179;82;21022;-60
2022/04/01 07:39:54;;;;;;;3.33;3.00;;;;;;;16.40;49.17;97789.55;1734622;82;21185;-60
2022/04/01 07:42:21;;;;;;;2.90;2.70;;;;;;;16.40;49.18;97781.00;1734774;82;21042;-59
2022/04/01 07:45:08;;;;;;;3.42;3.12;;;;;;;16.41;49.18;97787.16;1734943;82;21119;-60
2022/04/01 07:47:35;;;;;;;3.00;2.80;;;;;;;16.41;49.19;97787.16;1734674;82;21076;-60
2022/04/01 07:50:06;;;;;;;3.50;3.20;;;;;;;16.42;49.19;97787.45;1734854;82;21010;-59
2022/04/01 07:52:40;;;;;;;3.52;3.22;;;;;;;16.42;49.19;97783.44;1650476;86;27597;-60
2022/04/01 07:55:05;;;;;;;3.10;2.80;;;;;;;16.42;49.22;97782.89;1630206;88;21640;-60
2022/04/01 07:57:31;;;;;;;3.20;3.00;;;;;;;16.42;49.22;97784.77;1630571;88;21916;-59
2022/04/01 08:00:18;;;;;;;3.42;3.08;;;;;;;16.43;49.24;97774.31;1630297;88;21101;-60
2022/04/01 08:02:45;;;;;;;3.70;2.87;;;;;;;16.44;49.25;97783.98;1630823;88;21064;-59
2022/04/01 08:05:12;;;;;;;3.33;3.02;;;;;;;16.44;49.24;97785.33;1630634;88;21156;-59
2022/04/01 08:07:39;;;;;;;3.47;3.17;;;;;;;16.45;49.24;97777.00;1657299;86;21680;-60
2022/04/01 08:10:07;;;;;;;3.20;2.90;;;;;;;16.45;49.27;97768.97;1660793;86;21325;-60
2022/04/01 08:12:35;;;;;;;3.08;2.77;;;;;;;16.46;49.27;97760.42;1710152;81;21068;-61
2022/04/01 08:15:05;;;;;;;3.47;3.17;;;;;;;16.46;49.27;97765.23;1620191;88;21155;-60
2022/04/01 08:17:49;;;;;;;3.80;3.50;;;;;;;16.47;49.27;97760.14;1589477;89;21149;-60
2022/04/01 08:20:17;;;;;;;3.30;3.00;;;;;;;16.48;49.27;97762.31;1580370;90;21569;-59
2022/04/01 08:22:45;;;;;;;3.35;3.05;;;;;;;16.47;49.27;97760.14;1526522;94;21087;-61
2022/04/01 08:25:12;;;;;;;3.33;3.02;;;;;;;16.49;49.28;97756.67;1511791;94;21125;-60
2022/04/01 08:27:39;;;;;;;3.90;3.52;;;;;;;16.50;49.27;97763.66;1493410;94;21630;-59
2022/04/01 08:30:23;;;;;;;4.33;3.85;;;;;;;16.50;49.30;97752.14;1518849;94;21124;-59
2022/04/01 08:32:50;;;;;;;3.42;3.20;;;;;;;16.52;49.30;97758.05;1527015;94;21161;-59
2022/04/01 08:35:35;;;;;;;3.80;3.50;;;;;;;16.51;49.30;97749.21;1550330;90;21106;-59
2022/04/01 08:38:01;;;;;;;3.40;3.02;;;;;;;16.51;49.30;97744.36;1583374;90;21125;-60
2022/04/01 08:40:29;;;;;;;3.65;3.33;;;;;;;16.51;49.31;97750.55;1583379;90;21746;-60
2022/04/01 08:42:57;;;;;;;3.98;3.58;;;;;;;16.51;49.32;97755.91;1482378;96;21172;-58
2022/04/01 08:45:42;;;;;;;3.95;3.60;;;;;;;16.52;49.32;97756.72;1477024;96;21148;-60
2022/04/01 08:48:27;;;;;;;4.15;3.85;;;;;;;16.53;49.31;97756.17;1476914;97;21191;-61
2022/04/01 08:51:13;;;;;;;4.80;3.60;;;;;;;16.53;49.33;97754.30;1476869;97;21151;-59
2022/04/01 08:53:58;;;;;;;3.55;3.25;;;;;;;16.53;49.33;97751.61;1546258;92;21710;-60
2022/04/01 08:56:26;;;;;;;4.05;3.60;;;;;;;16.53;49.36;97754.83;1491338;96;21105;-60
2022/04/01 08:58:52;;;;;;;4.17;3.77;;;;;;;16.53;49.37;97761.53;1508310;95;21107;-60
2022/04/01 09:01:19;;;;;;;3.92;3.45;;;;;;;16.53;49.38;97763.67;1555998;91;21269;-60
2022/04/01 09:03:47;;;;;;;3.80;3.50;;;;;;;16.55;49.38;97772.80;1525985;94;21186;-59
2022/04/01 09:06:13;;;;;;;4.28;3.87;;;;;;;16.54;49.39;97772.55;1525971;94;21132;-61
2022/04/01 09:08:42;;;;;;;3.70;3.40;;;;;;;16.55;49.38;97776.29;1526095;94;21200;-60
2022/04/01 09:11:27;;;;;;;3.65;3.35;;;;;;;16.55;49.40;97773.61;1530211;93;21120;-62
2022/04/01 09:13:56;;;;;;;4.35;3.95;;;;;;;16.55;49.38;97764.23;1470360;97;21619;-60
2022/04/01 09:16:33;;;;;;;4.50;3.95;;;;;;;16.55;49.40;97768.25;1424424;99;21113;-60
2022/04/01 09:19:18;;;;;;;4.45;3.70;;;;;;;16.56;49.39;97776.58;1410429;99;21685;-60
2022/04/01 09:21:47;;;;;;;4.53;4.12;;;;;;;16.57;49.40;97778.72;1425122;98;21141;-58
2022/04/01 09:24:13;;;;;;;3.70;3.40;;;;;;;16.56;49.40;97781.94;1459407;98;21142;-60
2022/04/01 09:26:41;;;;;;;3.60;3.30;;;;;;;16.58;49.40;97779.01;1459405;98;21231;-60
2022/04/01 09:29:26;;;;;;;4.67;3.87;;;;;;;16.58;49.42;97778.47;1459349;98;21624;-60
2022/04/01 09:31:53;;;;;;;4.72;4.08;;;;;;;16.58;49.42;97779.01;1425282;98;21189;-59
2022/04/01 09:34:20;;;;;;;4.62;4.22;;;;;;;16.57;49.41;97771.48;1481783;95;21677;-59
2022/04/01 09:36:47;;;;;;;4.33;3.92;;;;;;;16.59;49.42;97769.89;1505193;94;21122;-60
2022/04/01 09:39:31;;;;;;;3.75;3.37;;;;;;;16.60;49.42;97771.52;1523324;94;21131;-59
2022/04/01 09:41:58;;;;;;;4.03;3.72;;;;;;;16.58;49.41;97775.79;1555226;91;21048;-61
2022/04/01 09:44:30;;;;;;;4.20;3.80;;;;;;;16.60;49.42;97772.86;1566210;91;21172;-60
2022/04/01 09:47:16;;;;;;;3.77;3.47;;;;;;;16.60;49.41;97768.30;1566181;91;21165;-60
2022/04/01 09:50:04;;;;;;;4.55;4.15;;;;;;;16.60;49.42;97772.32;1517374;91;21115;-60
2022/04/01 09:52:34;;;;;;;3.87;3.58;;;;;;;16.61;49.41;97771.27;1631660;87;21954;-60
2022/04/01 09:54:58;;;;;;;4.37;3.98;;;;;;;16.61;49.44;97776.63;1688437;80;21004;-60
2022/04/01 09:57:25;;;;;;;4.17;3.83;;;;;;;16.61;49.43;97777.97;1776936;80;21051;-60
2022/04/01 09:59:53;;;;;;;3.80;3.50;;;;;;;16.62;49.44;97771.53;1777011;80;21516;-60
2022/04/01 10:02:38;;;;;;;4.55;4.15;;;;;;;16.63;49.44;97773.67;1818985;78;21377;-60
2022/04/01 10:05:07;;;;;;;4.05;3.75;;;;;;;16.63;49.42;97777.19;1826162;78;21249;-60
2022/04/01 10:07:57;;;;;;;4.20;3.80;;;;;;;16.64;49.43;97775.30;1826270;78;20986;-61
2022/04/01 10:10:25;;;;;;;4.25;3.85;;;;;;;16.64;49.41;97777.45;1834755;78;21080;-62
2022/04/01 10:13:18;;;;;;;5.37;3.83;;;;;;;16.65;49.44;97772.89;1826283;78;20982;-60
2022/04/01 10:15:46;;;;;;;4.47;3.80;;;;;;;16.65;49.43;97776.91;1819603;78;21002;-60
2022/04/01 10:18:13;;;;;;;5.12;4.50;;;;;;;16.66;49.43;97775.86;1826162;78;21208;-59
2022/04/01 10:20:40;;;;;;;4.62;4.22;;;;;;;16.66;49.43;97767.27;1826079;78;21002;-60
2022/04/01 10:23:24;;;;;;;4.22;3.83;;;;;;;16.67;49.45;97771.59;1826177;78;21037;-60
2022/04/01 10:26:05;;;;;;;4.10;3.58;;;;;;;16.69;49.42;97773.48;1748026;82;21053;-60
2022/04/01 10:28:52;;;;;;;4.15;3.77;;;;;;;16.70;49.44;97768.37;1749035;82;21056;-61
2022/04/01 10:31:37;;;;;;;4.60;4.05;;;;;;;16.71;49.41;97774.56;1749028;82;21105;-60
2022/04/01 10:34:23;;;;;;;4.53;4.12;;;;;;;16.70;49.42;97769.72;1749155;82;21497;-60
2022/04/01 10:37:00;;;;;;;4.53;4.08;;;;;;;16.73;49.45;97774.29;1673336;85;21054;-60
2022/04/01 10:39:28;;;;;;;4.25;3.85;;;;;;;16.73;49.45;97771.61;1673535;85;22151;-59
2022/04/01 10:42:12;;;;;;;4.90;4.50;;;;;;;16.74;49.45;97774.58;1673269;85;21085;-60
2022/04/01 10:44:49;;;;;;;5.12;4.72;;;;;;;16.74;49.45;97777.26;1645955;87;21118;-60
2022/04/01 10:47:16;;;;;;;5.08;4.58;;;;;;;16.76;49.47;97777.81;1645886;87;21179;-60
2022/04/01 10:52:30;;;;;;;4.75;4.25;;;;;;;16.76;49.44;97775.93;1646021;86;21052;-60
2022/04/01 10:55:18;;;;;;;5.10;4.60;;;;;;;16.77;49.48;97772.20;1646010;86;21139;-60
2022/04/01 10:57:46;;;;;;;5.05;3.90;;;;;;;16.78;49.48;97778.36;1646005;87;21273;-60
2022/04/01 11:00:31;;;;;;;4.72;4.25;;;;;;;16.78;49.49;97783.72;1663419;85;21612;-61
2022/04/01 11:02:58;;;;;;;7.87;4.75;;;;;;;16.78;49.49;97787.75;1667423;82;21013;-61
2022/04/01 11:05:31;;;;;;;4.58;4.17;;;;;;;16.77;49.51;97789.63;1645829;84;21072;-60
2022/04/01 11:08:23;;;;;;;5.17;4.40;;;;;;;16.78;49.53;97789.09;1614967;88;21027;-59
2022/04/01 11:11:10;;;;;;;5.75;4.10;;;;;;;16.79;49.53;97786.16;1614935;88;21068;-60
2022/04/01 11:13:38;;;;;;;5.67;4.50;;;;;;;16.80;49.50;97784.27;1499848;95;21601;-59
2022/04/01 11:16:22;;;;;;;5.12;4.10;;;;;;;16.80;49.54;97777.57;1486073;95;21193;-60
2022/04/01 11:19:16;;;;;;;4.40;4.00;;;;;;;16.80;49.52;97783.73;1506788;95;21140;-60
2022/04/01 11:21:47;;;;;;;4.72;4.22;;;;;;;16.80;49.54;97788.30;1506980;95;21169;-60
2022/04/01 11:24:33;;;;;;;5.05;4.55;;;;;;;16.81;49.54;97789.92;1449496;99;21149;-60
2022/04/01 11:27:09;;;;;;;4.17;3.83;;;;;;;16.81;49.55;97789.92;1459640;98;21110;-60
2022/04/01 11:29:37;;;;;;;5.33;4.83;;;;;;;16.80;49.55;97787.75;1395742;101;21119;-60
2022/04/01 11:32:10;;;;;;;5.03;4.33;;;;;;;16.82;49.58;97792.90;1398158;102;21181;-59
2022/04/01 11:34:55;;;;;;;5.25;4.40;;;;;;;16.81;49.58;97792.61;1398642;101;21178;-59
2022/04/01 11:37:42;;;;;;;4.90;4.50;;;;;;;16.81;49.59;97788.59;1399168;102;21171;-60
2022/04/01 11:40:11;;;;;;;5.72;4.80;;;;;;;16.82;49.59;97792.90;1399129;102;21146;-60
2022/04/01 11:43:05;;;;;;;4.72;4.25;;;;;;;16.82;49.60;97796.38;1400616;102;21239;-59
2022/04/01 11:45:51;;;;;;;4.80;4.30;;;;;;;16.82;49.59;97803.63;1421625;99;21163;-60
2022/04/01 11:48:39;;;;;;;5.62;4.42;;;;;;;16.83;49.59;97802.58;1443766;99;21139;-60
2022/04/01 11:51:26;;;;;;;4.87;4.37;;;;;;;16.82;49.60;97793.70;1466914;96;21075;-60
2022/04/01 11:54:11;;;;;;;5.50;4.72;;;;;;;16.81;49.61;97801.45;1457387;98;21194;-60
2022/04/01 11:56:38;;;;;;;5.37;4.85;;;;;;;16.82;49.63;97803.63;1447726;99;21600;-59
2022/04/01 11:59:07;;;;;;;4.92;4.53;;;;;;;16.82;49.63;97807.64;1488557;96;21183;-59
2022/04/01 12:01:54;;;;;;;5.28;4.72;;;;;;;16.82;49.63;97806.31;1582799;86;21119;-59
2022/04/01 12:04:09;;;;;;;5.05;4.60;;;;;;;16.83;49.62;97806.59;1759673;80;21269;-60
2022/04/01 12:09:30;;;;;;;5.00;4.50;;;;;;;16.84;49.59;97804.17;1819276;78;21485;-60
2022/04/01 12:11:58;;;;;;;4.90;4.50;;;;;;;16.84;49.61;97805.01;1820549;78;21021;-60
2022/04/01 12:14:26;;;;;;;5.22;4.70;;;;;;;16.85;49.59;97809.83;1820446;78;21566;-59
2022/04/01 12:16:52;;;;;;;5.40;4.87;;;;;;;16.85;49.58;97813.86;1820510;78;21069;-59
2022/04/01 12:19:21;;;;;;;5.42;4.50;;;;;;;16.85;49.57;97816.53;1820528;77;20978;-61